Time;durP1;ratioP1;P1;durP2;ratioP2;P2;SDS_P1;SDS_P2;PMS_P1;PMS_P2;Temp;Humidity;BMP_temperature;BMP_pressure;BME280_temperature;BME280_humidity;BME280_pressure;Samples;Min_cycle;Max_cycle;Signal;HPM_P1;HPM_P2
2022/02/02 00:00:56;;;;;;;23.90;3.20;;;4.70;99.90;;;;;;4172147;28;20469;-84
2022/02/02 00:03:05;;;;;;;18.77;2.57;;;4.80;99.90;;;;;;4177783;28;20463;-84
2022/02/02 00:05:18;;;;;;;13.63;2.13;;;4.70;99.90;;;;;;4181786;28;20440;-84
2022/02/02 00:07:32;;;;;;;14.23;1.77;;;4.70;99.90;;;;;;4181782;28;20550;-84
2022/02/02 00:09:34;;;;;;;14.37;2.37;;;4.90;99.90;;;;;;4181519;28;20476;-84
2022/02/02 00:14:02;;;;;;;17.07;2.20;;;4.70;99.90;;;;;;4181033;28;20812;-85
2022/02/02 00:16:11;;;;;;;19.37;2.73;;;4.80;99.90;;;;;;4180718;28;20961;-84
2022/02/02 00:18:40;;;;;;;16.43;2.40;;;4.80;99.90;;;;;;4168119;28;20468;-84
2022/02/02 00:20:49;;;;;;;20.77;2.63;;;4.70;99.90;;;;;;4177204;28;20464;-84
2022/02/02 00:22:54;;;;;;;13.70;2.50;;;4.70;99.90;;;;;;4173196;28;20512;-84
2022/02/02 00:25:06;;;;;;;16.47;2.07;;;4.70;99.90;;;;;;4174509;28;20465;-84
2022/02/02 00:27:11;;;;;;;19.20;2.80;;;4.70;99.90;;;;;;4168781;28;20492;-84
2022/02/02 00:29:18;;;;;;;24.30;3.17;;;4.70;99.90;;;;;;4175085;28;20867;-82
2022/02/02 00:31:24;;;;;;;20.97;2.80;;;4.70;99.90;;;;;;4170893;28;20848;-82
2022/02/02 00:33:29;;;;;;;15.47;2.57;;;4.80;99.90;;;;;;4174155;28;20466;-84
2022/02/02 00:35:35;;;;;;;15.27;2.30;;;4.80;99.90;;;;;;4166375;28;20458;-82
2022/02/02 00:37:37;;;;;;;11.33;1.80;;;4.80;99.90;;;;;;4171512;28;20490;-84
2022/02/02 00:39:39;;;;;;;17.93;2.50;;;4.80;99.90;;;;;;4175216;28;20468;-84
2022/02/02 00:41:40;;;;;;;14.07;2.77;;;4.80;99.90;;;;;;4175885;28;20503;-82
2022/02/02 00:43:46;;;;;;;10.57;2.00;;;4.80;99.90;;;;;;4171563;28;20458;-82
2022/02/02 00:45:49;;;;;;;14.13;1.87;;;4.80;99.90;;;;;;4179201;28;20468;-84
2022/02/02 00:47:51;;;;;;;10.10;1.73;;;4.80;99.90;;;;;;4178333;28;20501;-84
2022/02/02 00:49:55;;;;;;;12.37;2.50;;;4.80;99.90;;;;;;4165802;28;20554;-84
2022/02/02 00:51:58;;;;;;;13.87;2.47;;;4.80;99.90;;;;;;4173873;28;21132;-84
2022/02/02 00:54:00;;;;;;;14.80;2.50;;;5.00;99.90;;;;;;4173710;28;20471;-84
2022/02/02 00:56:02;;;;;;;16.43;2.77;;;5.10;99.90;;;;;;4182253;28;20529;-84
2022/02/02 00:58:04;;;;;;;15.53;2.03;;;4.80;99.90;;;;;;4181842;28;20465;-84
2022/02/02 01:00:09;;;;;;;11.93;1.87;;;4.80;99.90;;;;;;4176659;28;20510;-84
2022/02/02 01:02:12;;;;;;;13.70;2.23;;;4.80;99.90;;;;;;4174694;28;20459;-84
2022/02/02 01:04:14;;;;;;;25.67;2.63;;;4.80;99.90;;;;;;4174951;28;20854;-84
2022/02/02 01:06:19;;;;;;;17.83;2.33;;;4.80;99.90;;;;;;4165741;28;20455;-83
2022/02/02 01:08:44;;;;;;;18.20;3.10;;;4.80;99.90;;;;;;4171658;28;20485;-83
2022/02/02 01:10:56;;;;;;;18.73;2.60;;;4.70;99.90;;;;;;4172430;28;20979;-83
2022/02/02 01:13:09;;;;;;;12.40;1.80;;;4.80;99.90;;;;;;4175589;28;20473;-84
2022/02/02 01:17:49;;;;;;;17.00;2.10;;;5.60;99.90;;;;;;4181397;28;20495;-84
2022/02/02 01:20:00;;;;;;;19.50;1.90;;;4.70;99.90;;;;;;4180465;28;20470;-84
2022/02/02 01:22:16;;;;;;;13.67;2.23;;;4.70;99.90;;;;;;4174994;28;20500;-84
2022/02/02 01:28:56;;;;;;;9.93;1.50;;;4.70;99.90;;;;;;4170015;28;20463;-84
2022/02/02 01:31:01;;;;;;;13.57;2.10;;;4.70;99.90;;;;;;4170492;28;20497;-83
2022/02/02 01:33:03;;;;;;;18.13;2.47;;;4.70;99.90;;;;;;4179937;28;20449;-81
2022/02/02 01:35:13;;;;;;;10.20;1.87;;;4.70;99.90;;;;;;4180437;28;20448;-83
2022/02/02 01:37:17;;;;;;;13.30;1.90;;;4.70;99.90;;;;;;4178406;28;20477;-83
2022/02/02 01:39:24;;;;;;;18.80;2.23;;;4.70;99.90;;;;;;4181585;28;20487;-83
2022/02/02 01:41:31;;;;;;;15.17;2.83;;;4.70;99.90;;;;;;4179669;28;20574;-83
2022/02/02 01:43:37;;;;;;;13.40;1.70;;;4.70;99.90;;;;;;4172684;28;20450;-84
2022/02/02 01:45:42;;;;;;;8.87;2.23;;;4.80;99.90;;;;;;4166780;28;20465;-83
2022/02/02 01:47:55;;;;;;;12.83;2.27;;;4.80;99.90;;;;;;4177195;28;20482;-83
2022/02/02 01:50:00;;;;;;;10.90;1.77;;;5.00;99.90;;;;;;4164546;28;20473;-83
2022/02/02 01:52:35;;;;;;;21.13;2.93;;;4.80;99.90;;;;;;4174773;28;20450;-83
2022/02/02 01:54:52;;;;;;;17.87;1.97;;;4.80;99.90;;;;;;4171524;28;20473;-82
2022/02/02 01:56:54;;;;;;;18.77;2.43;;;4.80;99.90;;;;;;4173420;28;20465;-83
2022/02/02 01:59:08;;;;;;;21.30;2.60;;;4.80;99.90;;;;;;4174996;28;20523;-84
2022/02/02 02:01:11;;;;;;;11.87;1.97;;;4.80;99.90;;;;;;4179796;28;20578;-82
2022/02/02 02:03:14;;;;;;;16.50;2.27;;;4.80;99.90;;;;;;4181040;28;20540;-82
2022/02/02 02:05:16;;;;;;;20.87;2.53;;;5.20;99.90;;;;;;4179594;28;20458;-81
2022/02/02 02:07:18;;;;;;;13.47;2.33;;;4.80;99.90;;;;;;4174250;28;20463;-81
2022/02/02 02:09:24;;;;;;;16.63;1.97;;;4.80;99.90;;;;;;4178742;28;20480;-81
2022/02/02 02:11:26;;;;;;;10.77;1.80;;;4.80;99.90;;;;;;4172759;28;20469;-81
2022/02/02 02:13:50;;;;;;;9.90;1.37;;;4.80;99.90;;;;;;4174918;28;20455;-81
2022/02/02 02:15:52;;;;;;;16.80;2.63;;;4.80;99.90;;;;;;4168425;28;20594;-82
2022/02/02 02:17:54;;;;;;;9.60;1.90;;;4.70;99.90;;;;;;4179280;28;20455;-81
2022/02/02 02:19:57;;;;;;;21.00;2.33;;;4.80;99.90;;;;;;4178939;28;20491;-81
2022/02/02 02:21:59;;;;;;;20.53;2.40;;;4.80;99.90;;;;;;4180516;28;20459;-81
2022/02/02 02:24:02;;;;;;;10.67;1.97;;;4.80;99.90;;;;;;4171255;28;21037;-81
2022/02/02 02:26:06;;;;;;;12.27;2.23;;;4.70;99.90;;;;;;4177981;28;20455;-81
2022/02/02 02:28:17;;;;;;;19.70;2.57;;;4.80;99.90;;;;;;4180958;28;20478;-81
2022/02/02 02:30:27;;;;;;;12.33;2.17;;;4.80;99.90;;;;;;4179969;28;20572;-82
2022/02/02 02:37:44;;;;;;;14.63;2.03;;;4.80;99.90;;;;;;4081705;29;21103;-82
2022/02/02 02:39:57;;;;;;;15.60;2.50;;;4.80;99.90;;;;;;4139692;28;20470;-82
2022/02/02 02:56:03;;;;;;;17.40;2.50;;;4.80;99.90;;;;;;4165689;28;20449;-79
2022/02/02 02:58:13;;;;;;;19.07;3.27;;;4.80;99.90;;;;;;4180070;28;20450;-79
2022/02/02 03:00:37;;;;;;;13.90;2.60;;;4.80;99.90;;;;;;4180033;28;20453;-80
2022/02/02 03:03:18;;;;;;;18.23;2.50;;;4.80;99.90;;;;;;4171410;28;20490;-80
2022/02/02 03:30:53;;;;;;;11.47;1.80;;;4.70;99.90;;;;;;4195160;28;20479;-78
2022/02/02 03:34:36;;;;;;;13.10;1.87;;;4.70;99.90;;;;;;4198506;28;20521;-79
2022/02/02 03:49:21;;;;;;;10.47;2.03;;;4.70;99.90;;;;;;4182285;28;20471;-79
2022/02/02 03:52:05;;;;;;;6.13;1.10;;;4.60;99.90;;;;;;4183171;28;20884;-78
2022/02/02 03:56:37;;;;;;;9.50;1.70;;;4.50;99.90;;;;;;4176876;28;20457;-79
2022/02/02 03:58:45;;;;;;;17.77;1.50;;;4.50;99.90;;;;;;4182054;28;20454;-78
2022/02/02 04:01:11;;;;;;;13.60;1.50;;;4.50;99.90;;;;;;4180511;28;20535;-80
2022/02/02 04:03:38;;;;;;;9.53;1.30;;;4.50;99.90;;;;;;4182114;28;20520;-80
2022/02/02 04:05:42;;;;;;;7.80;1.40;;;4.50;99.90;;;;;;4182946;28;20469;-81
2022/02/02 04:07:48;;;;;;;10.17;1.47;;;4.40;99.90;;;;;;4183500;28;20890;-82
2022/02/02 04:09:51;;;;;;;10.00;1.60;;;4.40;99.90;;;;;;4168509;28;20461;-81
2022/02/02 04:12:00;;;;;;;13.80;1.73;;;4.50;99.90;;;;;;4186950;28;20504;-81
2022/02/02 04:51:38;;;;;;;14.03;1.97;;;4.20;99.90;;;;;;4183295;28;20468;-80
2022/02/02 04:56:15;;;;;;;12.50;1.23;;;4.10;99.90;;;;;;4176091;28;20516;-81
2022/02/02 04:58:27;;;;;;;11.33;1.57;;;4.10;99.90;;;;;;4189410;28;20514;-80
2022/02/02 05:07:43;;;;;;;10.37;1.57;;;4.10;99.90;;;;;;4177364;28;20516;-80
2022/02/02 05:09:54;;;;;;;12.20;1.93;;;4.10;99.90;;;;;;4193102;28;20503;-81
2022/02/02 05:12:38;;;;;;;14.97;2.37;;;4.10;99.90;;;;;;4177138;28;20493;-81
2022/02/02 05:15:30;;;;;;;13.47;1.67;;;4.10;99.90;;;;;;4187654;28;20543;-81
2022/02/02 05:22:40;;;;;;;12.30;1.67;;;4.20;99.90;;;;;;4170738;28;20546;-80
2022/02/02 05:43:46;;;;;;;15.33;2.43;;;4.30;99.90;;;;;;4169317;28;20432;-79
2022/02/02 05:50:35;;;;;;;13.10;1.80;;;4.40;99.90;;;;;;4181496;28;20483;-82
2022/02/02 05:52:37;;;;;;;12.13;1.90;;;4.40;99.90;;;;;;4184679;28;20474;-81
2022/02/02 05:54:40;;;;;;;8.80;1.90;;;4.50;99.90;;;;;;4189518;28;20528;-81
2022/02/02 05:56:47;;;;;;;13.87;2.23;;;4.50;99.90;;;;;;4199274;28;20463;-81
2022/02/02 05:58:49;;;;;;;16.30;2.47;;;4.50;99.90;;;;;;4189729;28;20499;-81
2022/02/02 06:00:51;;;;;;;21.00;2.57;;;5.20;99.90;;;;;;4182828;28;20493;-79
2022/02/02 06:02:57;;;;;;;18.13;2.70;;;4.50;99.90;;;;;;4177098;28;20468;-82
2022/02/02 06:05:05;;;;;;;15.83;2.07;;;4.50;99.90;;;;;;4182385;28;20591;-85
2022/02/02 06:07:07;;;;;;;11.87;1.50;;;5.20;99.90;;;;;;4183174;28;20522;-81
2022/02/02 06:09:09;;;;;;;13.33;1.90;;;4.40;99.90;;;;;;4189052;28;20574;-82
2022/02/02 06:11:17;;;;;;;8.13;1.70;;;5.10;99.90;;;;;;4190247;28;20471;-82
2022/02/02 06:13:21;;;;;;;6.87;1.30;;;4.40;99.90;;;;;;4175482;28;20493;-82
2022/02/02 06:15:24;;;;;;;7.57;1.23;;;4.10;99.90;;;;;;4180444;28;20911;-82
2022/02/02 06:17:29;;;;;;;9.73;1.80;;;4.40;99.90;;;;;;4181405;28;20506;-82
2022/02/02 06:19:30;;;;;;;6.53;1.30;;;4.30;99.90;;;;;;4179382;28;20464;-81
2022/02/02 06:21:34;;;;;;;10.87;1.40;;;4.30;99.90;;;;;;4181343;28;20801;-82
2022/02/02 06:23:38;;;;;;;12.77;1.20;;;4.30;99.90;;;;;;4182045;28;20839;-82
2022/02/02 06:25:45;;;;;;;7.63;1.77;;;4.30;99.90;;;;;;4175418;28;20507;-82
2022/02/02 06:27:56;;;;;;;9.93;1.10;;;4.20;99.90;;;;;;4178817;28;20469;-81
2022/02/02 06:30:03;;;;;;;8.43;1.27;;;4.20;99.90;;;;;;4178690;28;20485;-82
2022/02/02 06:32:06;;;;;;;10.77;1.60;;;4.20;99.90;;;;;;4179265;28;21070;-82
2022/02/02 06:34:10;;;;;;;12.47;1.73;;;4.20;99.90;;;;;;4181748;28;20472;-82
2022/02/02 06:36:12;;;;;;;13.00;1.60;;;4.20;99.90;;;;;;4179978;28;20453;-82
2022/02/02 06:38:17;;;;;;;8.73;1.30;;;4.10;99.90;;;;;;4179653;28;20884;-82
2022/02/02 06:40:23;;;;;;;5.50;1.43;;;4.40;99.90;;;;;;4181849;28;20472;-81
2022/02/02 06:42:25;;;;;;;9.63;1.53;;;4.10;99.90;;;;;;4179730;28;20506;-82
2022/02/02 06:44:30;;;;;;;6.00;1.40;;;4.10;99.90;;;;;;4178687;28;20805;-82
2022/02/02 06:46:34;;;;;;;13.27;1.80;;;4.10;99.90;;;;;;4177209;28;20481;-82
2022/02/02 06:48:36;;;;;;;11.63;1.83;;;4.10;99.90;;;;;;4177426;28;20497;-82
2022/02/02 06:50:41;;;;;;;9.70;1.80;;;3.90;99.90;;;;;;4181220;28;20489;-81
2022/02/02 06:52:49;;;;;;;13.20;1.30;;;4.10;99.90;;;;;;4182949;28;20473;-82
2022/02/02 06:55:04;;;;;;;16.33;1.97;;;4.10;99.90;;;;;;4188736;28;20961;-81
2022/02/02 06:57:16;;;;;;;10.70;1.83;;;4.20;99.90;;;;;;4177981;28;20504;-80
2022/02/02 06:59:30;;;;;;;15.77;2.37;;;4.20;99.90;;;;;;4174736;28;20530;-82
2022/02/02 07:01:49;;;;;;;15.53;2.30;;;4.20;99.90;;;;;;4171676;28;20989;-82
2022/02/02 07:04:02;;;;;;;15.50;2.47;;;4.20;99.90;;;;;;4175158;28;20461;-82
2022/02/02 07:06:16;;;;;;;18.17;2.13;;;4.20;99.90;;;;;;4173130;28;20473;-82
2022/02/02 07:08:29;;;;;;;18.97;2.67;;;4.30;99.90;;;;;;4177885;28;20465;-82
2022/02/02 07:10:46;;;;;;;18.87;2.40;;;4.30;99.90;;;;;;4173372;28;20464;-82
2022/02/02 07:13:04;;;;;;;12.67;2.00;;;4.40;99.90;;;;;;4179661;28;20676;-83
2022/02/02 07:15:19;;;;;;;13.60;2.13;;;4.40;99.90;;;;;;4178994;28;20468;-81
2022/02/02 07:17:38;;;;;;;18.97;2.80;;;4.40;99.90;;;;;;4178737;28;20900;-82
2022/02/02 07:19:54;;;;;;;13.50;2.60;;;4.50;99.90;;;;;;4177006;28;20477;-80
2022/02/02 07:22:12;;;;;;;15.43;3.00;;;4.40;99.90;;;;;;4179569;28;20552;-80
2022/02/02 07:24:36;;;;;;;18.00;2.40;;;4.90;99.90;;;;;;4178973;28;20452;-80
2022/02/02 07:29:05;;;;;;;26.07;2.80;;;4.50;99.90;;;;;;4177478;28;20491;-82
2022/02/02 07:31:21;;;;;;;23.10;2.83;;;5.30;99.90;;;;;;4179719;28;20567;-81
2022/02/02 07:33:31;;;;;;;16.57;2.53;;;4.60;99.90;;;;;;4179426;28;20471;-81
2022/02/02 07:38:09;;;;;;;18.90;3.07;;;4.60;99.90;;;;;;4164538;28;20846;-84
2022/02/02 07:40:11;;;;;;;14.30;2.20;;;4.60;99.90;;;;;;4177708;28;21151;-82
2022/02/02 07:42:18;;;;;;;15.50;2.10;;;4.70;99.90;;;;;;4177677;28;20492;-80
2022/02/02 07:44:24;;;;;;;15.47;2.40;;;4.70;99.90;;;;;;4178790;28;20469;-82
2022/02/02 07:46:28;;;;;;;18.53;2.53;;;4.90;99.90;;;;;;4181250;28;20961;-80
2022/02/02 07:48:35;;;;;;;20.80;2.97;;;4.70;99.90;;;;;;4178809;28;20469;-82
2022/02/02 07:50:37;;;;;;;15.23;2.27;;;4.70;99.90;;;;;;4179192;28;21044;-81
2022/02/02 07:52:42;;;;;;;16.47;2.97;;;5.30;99.90;;;;;;4179895;28;20468;-81
2022/02/02 07:54:46;;;;;;;12.73;2.07;;;4.80;99.90;;;;;;4175593;28;20500;-80
2022/02/02 07:56:48;;;;;;;14.47;2.30;;;4.80;99.90;;;;;;4180051;28;20460;-81
2022/02/02 07:59:01;;;;;;;12.43;2.07;;;4.90;99.90;;;;;;4175826;28;20496;-83
2022/02/02 08:01:03;;;;;;;16.60;3.00;;;4.90;99.90;;;;;;4175651;28;20843;-80
2022/02/02 08:03:08;;;;;;;16.53;2.77;;;4.90;99.90;;;;;;4179531;28;20466;-84
2022/02/02 08:05:13;;;;;;;17.87;3.30;;;4.90;99.90;;;;;;4189078;28;20487;-81
2022/02/02 08:07:22;;;;;;;11.57;2.00;;;4.90;99.90;;;;;;4181805;28;20966;-81
2022/02/02 08:09:31;;;;;;;14.57;2.20;;;5.10;99.90;;;;;;4180114;28;21133;-80
2022/02/02 08:11:35;;;;;;;14.63;2.73;;;5.00;99.90;;;;;;4178108;28;20501;-79
2022/02/02 08:13:40;;;;;;;15.30;2.53;;;5.10;99.90;;;;;;4179722;28;20468;-82
2022/02/02 08:15:42;;;;;;;14.07;2.60;;;5.30;99.90;;;;;;4175358;28;20462;-80
2022/02/02 08:17:45;;;;;;;10.77;2.23;;;5.00;99.90;;;;;;4173680;28;20887;-80
2022/02/02 08:19:47;;;;;;;21.30;2.90;;;5.40;99.90;;;;;;4175580;28;20960;-83
2022/02/02 08:21:50;;;;;;;11.90;2.20;;;5.10;99.90;;;;;;4175999;28;20476;-83
2022/02/02 08:23:52;;;;;;;11.53;2.10;;;5.10;99.90;;;;;;4176056;28;20466;-80
2022/02/02 08:25:56;;;;;;;20.60;2.77;;;5.10;99.90;;;;;;4176076;28;20523;-80
2022/02/02 08:28:02;;;;;;;20.60;2.93;;;5.10;99.90;;;;;;4177685;28;20464;-80
2022/02/02 08:30:07;;;;;;;13.63;2.30;;;5.10;99.90;;;;;;4176480;28;20540;-82
2022/02/02 08:32:10;;;;;;;14.60;2.20;;;5.10;99.90;;;;;;4172753;28;20555;-80
2022/02/02 08:34:14;;;;;;;13.60;2.40;;;5.20;99.90;;;;;;4173731;28;20458;-81
2022/02/02 08:36:18;;;;;;;20.60;2.40;;;5.20;99.90;;;;;;4176547;28;20519;-79
2022/02/02 08:38:38;;;;;;;14.13;2.40;;;5.20;99.90;;;;;;4174945;28;20503;-79
2022/02/02 08:40:52;;;;;;;10.63;1.90;;;5.20;99.90;;;;;;4174715;28;21522;-80
2022/02/02 08:42:55;;;;;;;14.67;2.23;;;5.40;99.90;;;;;;4173825;28;20523;-81
2022/02/02 08:45:15;;;;;;;12.17;2.10;;;5.20;99.90;;;;;;4172298;28;20469;-81
2022/02/02 08:47:21;;;;;;;11.70;1.90;;;5.30;99.90;;;;;;4175003;28;20487;-79
2022/02/02 08:49:23;;;;;;;14.83;2.00;;;5.20;99.90;;;;;;4176165;28;21018;-82
2022/02/02 08:51:29;;;;;;;11.77;1.90;;;5.30;99.90;;;;;;4171872;28;20530;-79
2022/02/02 08:53:35;;;;;;;13.77;2.10;;;5.30;99.90;;;;;;4179486;28;20576;-82
2022/02/02 08:58:20;;;;;;;13.50;2.10;;;5.30;99.90;;;;;;4149131;28;20509;-82
2022/02/02 09:00:24;;;;;;;12.87;2.27;;;5.40;99.90;;;;;;4167386;28;20724;-82
2022/02/02 09:02:30;;;;;;;17.07;2.30;;;5.40;99.90;;;;;;4182243;28;21210;-81
2022/02/02 09:06:52;;;;;;;9.27;2.57;;;5.50;99.90;;;;;;4183708;28;20464;-81
2022/02/02 09:09:07;;;;;;;15.53;2.50;;;5.50;99.90;;;;;;4178600;28;20742;-79
2022/02/02 09:21:00;;;;;;;11.67;2.23;;;5.60;99.90;;;;;;4174879;28;20470;-79
2022/02/02 09:25:24;;;;;;;10.13;1.80;;;6.30;99.90;;;;;;4166961;28;20455;-79
2022/02/02 09:34:22;;;;;;;9.13;2.03;;;5.70;99.90;;;;;;4165402;28;20443;-80
2022/02/02 09:36:26;;;;;;;8.90;1.90;;;5.80;99.90;;;;;;4172628;28;20926;-80
2022/02/02 09:38:28;;;;;;;8.97;1.87;;;5.80;99.90;;;;;;4174607;28;20479;-81
2022/02/02 09:41:11;;;;;;;13.37;2.30;;;5.80;99.90;;;;;;4172367;28;20456;-83
2022/02/02 09:43:05;;;;;;;15.00;1.90;;;5.80;99.90;;;;;;4173837;28;21215;-80
2022/02/02 09:45:12;;;;;;;8.23;1.60;;;5.80;99.90;;;;;;4172585;28;20498;-82
2022/02/02 09:47:22;;;;;;;9.57;2.03;;;5.80;99.90;;;;;;4172730;28;20479;-81
2022/02/02 09:49:30;;;;;;;15.00;2.10;;;5.80;99.90;;;;;;4174705;28;20576;-80
2022/02/02 09:51:33;;;;;;;13.00;2.00;;;5.90;99.90;;;;;;4172281;28;20605;-81
2022/02/02 09:53:39;;;;;;;15.67;1.90;;;5.90;99.90;;;;;;4173632;28;20559;-81
2022/02/02 09:56:04;;;;;;;7.63;1.60;;;5.90;99.90;;;;;;4171018;28;20943;-81
2022/02/02 10:03:10;;;;;;;8.37;1.23;;;6.00;99.90;;;;;;4167270;28;20695;-81
2022/02/02 10:05:15;;;;;;;9.27;1.83;;;6.00;99.90;;;;;;4172463;28;20466;-79
2022/02/02 10:07:36;;;;;;;12.53;1.67;;;6.00;99.90;;;;;;4171116;28;20516;-81
2022/02/02 10:09:54;;;;;;;4.80;1.50;;;6.00;99.90;;;;;;4171719;28;20488;-82
2022/02/02 10:14:33;;;;;;;10.67;1.50;;;5.90;99.90;;;;;;4173511;28;21037;-80
2022/02/02 10:16:43;;;;;;;9.37;1.60;;;6.70;99.90;;;;;;4170974;28;21254;-80
2022/02/02 10:18:45;;;;;;;8.70;1.90;;;6.00;99.90;;;;;;4171567;28;20479;-82
2022/02/02 10:20:51;;;;;;;10.00;1.93;;;6.00;99.90;;;;;;4174054;28;20530;-81
2022/02/02 10:22:56;;;;;;;12.50;1.90;;;6.00;99.90;;;;;;4172403;28;20463;-81
2022/02/02 10:25:03;;;;;;;7.87;1.60;;;6.00;99.90;;;;;;4171583;28;20866;-79
2022/02/02 10:27:22;;;;;;;5.50;1.37;;;6.00;99.90;;;;;;4173191;28;20467;-84
2022/02/02 10:29:37;;;;;;;7.43;1.00;;;5.90;99.90;;;;;;4174738;28;20474;-80
2022/02/02 10:31:40;;;;;;;6.50;1.43;;;5.90;99.90;;;;;;4175385;28;20470;-81
2022/02/02 10:33:42;;;;;;;7.53;1.13;;;5.70;99.90;;;;;;4177704;28;20460;-81
2022/02/02 10:35:45;;;;;;;5.70;1.10;;;5.60;99.90;;;;;;4176423;28;20477;-82
2022/02/02 10:37:57;;;;;;;4.87;1.00;;;6.30;99.90;;;;;;4175384;28;20995;-82
2022/02/02 10:39:59;;;;;;;5.87;1.10;;;5.50;99.90;;;;;;4178842;28;20541;-83
2022/02/02 10:42:01;;;;;;;3.17;1.30;;;5.50;99.90;;;;;;4175930;28;21044;-84
2022/02/02 10:44:16;;;;;;;6.33;1.20;;;5.50;99.90;;;;;;4178856;28;20545;-85
2022/02/02 10:46:24;;;;;;;12.10;1.53;;;5.50;99.90;;;;;;4180982;28;20467;-84
2022/02/02 10:48:35;;;;;;;8.97;1.50;;;5.50;99.90;;;;;;4181116;28;20768;-85
2022/02/02 10:50:46;;;;;;;6.17;1.30;;;5.60;99.90;;;;;;4179499;28;20509;-82
2022/02/02 10:53:15;;;;;;;4.10;1.23;;;5.70;99.90;;;;;;4183744;28;20463;-83
2022/02/02 10:55:46;;;;;;;11.30;2.10;;;5.80;99.90;;;;;;4184051;28;20458;-82
2022/02/02 10:58:02;;;;;;;8.43;1.40;;;5.90;99.90;;;;;;4185383;28;20530;-80
2022/02/02 11:00:12;;;;;;;7.60;1.83;;;5.90;99.90;;;;;;4182658;28;20459;-81
2022/02/02 11:06:55;;;;;;;5.40;1.33;;;6.00;99.90;;;;;;4185008;28;20446;-80
2022/02/02 11:09:00;;;;;;;10.50;1.23;;;6.00;99.90;;;;;;4180224;28;20455;-84
2022/02/02 11:11:02;;;;;;;7.10;1.60;;;6.30;99.90;;;;;;4183142;28;20502;-86
2022/02/02 11:13:05;;;;;;;11.93;1.50;;;6.10;99.90;;;;;;4183053;28;20955;-83
2022/02/02 11:15:31;;;;;;;4.83;1.10;;;6.10;99.90;;;;;;4183288;28;20464;-83
2022/02/02 11:17:46;;;;;;;4.93;1.33;;;6.10;99.90;;;;;;4186864;28;21313;-85
2022/02/02 11:19:51;;;;;;;9.03;1.13;;;6.10;99.90;;;;;;4185628;28;20478;-83
2022/02/02 11:21:53;;;;;;;11.27;1.77;;;6.10;99.90;;;;;;4179789;28;20495;-85
2022/02/02 11:23:55;;;;;;;8.07;2.07;;;6.20;99.90;;;;;;4180462;28;20464;-86
2022/02/02 11:25:59;;;;;;;5.30;1.20;;;6.30;99.90;;;;;;4178898;28;20470;-85
2022/02/02 11:28:05;;;;;;;9.13;1.23;;;6.60;99.90;;;;;;4178239;28;20579;-83
2022/02/02 11:30:09;;;;;;;8.00;1.30;;;6.30;99.90;;;;;;4175951;28;20528;-85
2022/02/02 11:32:13;;;;;;;14.63;1.93;;;6.30;99.90;;;;;;4181905;28;20466;-87
2022/02/02 11:34:21;;;;;;;7.07;1.53;;;6.30;99.90;;;;;;4184940;28;20490;-84
2022/02/02 11:36:31;;;;;;;7.27;1.17;;;6.20;99.90;;;;;;4186152;28;20451;-84
2022/02/02 11:38:37;;;;;;;7.83;1.70;;;6.20;99.90;;;;;;4187961;28;20496;-85
2022/02/02 11:41:16;;;;;;;12.77;1.90;;;6.20;99.90;;;;;;4181454;28;20616;-83
2022/02/02 11:43:54;;;;;;;9.30;1.70;;;6.20;99.90;;;;;;4185296;28;20529;-85
2022/02/02 11:46:04;;;;;;;9.10;1.67;;;6.20;99.90;;;;;;4188701;28;20469;-84
2022/02/02 11:48:10;;;;;;;8.37;1.70;;;6.20;99.90;;;;;;4186597;28;20471;-84
2022/02/02 11:50:12;;;;;;;12.40;2.07;;;6.20;99.90;;;;;;4184803;28;20508;-83
2022/02/02 11:52:37;;;;;;;6.80;1.63;;;6.20;99.90;;;;;;4186639;28;20515;-83
2022/02/02 11:54:49;;;;;;;8.23;1.40;;;6.20;99.90;;;;;;4184934;28;20485;-84
2022/02/02 11:57:18;;;;;;;8.27;1.60;;;6.20;99.90;;;;;;4185961;28;21420;-85
2022/02/02 11:59:52;;;;;;;12.20;1.63;;;6.20;99.90;;;;;;4185972;28;20465;-87
2022/02/02 12:02:13;;;;;;;6.47;1.57;;;6.20;99.90;;;;;;4184250;28;20485;-84
2022/02/02 12:04:27;;;;;;;8.23;1.70;;;6.10;99.90;;;;;;4186658;28;20452;-87
2022/02/02 12:06:56;;;;;;;8.87;1.70;;;6.20;99.90;;;;;;4177098;28;20549;-84
2022/02/02 12:09:09;;;;;;;8.40;1.23;;;6.60;99.90;;;;;;4172785;28;20471;-85
2022/02/02 12:19:20;;;;;;;6.97;1.53;;;7.00;99.90;;;;;;4189205;28;20524;-84
2022/02/02 12:27:47;;;;;;;8.03;1.17;;;6.90;99.90;;;;;;4189872;28;20497;-83
2022/02/02 12:36:01;;;;;;;10.40;1.63;;;6.40;99.90;;;;;;4175570;28;21003;-84
2022/02/02 12:55:44;;;;;;;11.23;1.60;;;6.00;99.90;;;;;;4124354;28;20488;-84
2022/02/02 12:57:21;;;;;;;6.13;1.30;;;6.00;99.90;;;;;;4125415;28;21031;-84
2022/02/02 12:59:55;;;;;;;8.60;1.50;;;5.90;99.90;;;;;;4126351;28;20477;-84
2022/02/02 13:02:19;;;;;;;7.03;1.30;;;5.80;99.90;;;;;;4125459;28;20477;-84
2022/02/02 13:04:29;;;;;;;9.60;1.30;;;5.70;99.90;;;;;;4118560;28;20539;-83
2022/02/02 13:08:34;;;;;;;7.30;1.30;;;5.20;99.90;;;;;;4149392;22;21043;-84
2022/02/02 13:10:42;;;;;;;5.17;1.07;;;5.00;99.90;;;;;;4131228;28;21161;-84
2022/02/02 13:12:52;;;;;;;10.17;1.20;;;4.90;99.90;;;;;;4122110;28;20470;-84
2022/02/02 13:15:12;;;;;;;6.17;1.20;;;4.80;99.90;;;;;;4129300;28;20997;-84
2022/02/02 13:17:15;;;;;;;4.03;0.80;;;4.80;99.90;;;;;;4128867;28;20479;-84
2022/02/02 13:19:31;;;;;;;6.30;0.90;;;4.70;99.90;;;;;;4135383;28;20521;-84
2022/02/02 13:21:42;;;;;;;4.17;1.20;;;4.70;99.90;;;;;;4138406;28;20505;-84
2022/02/02 13:23:55;;;;;;;7.70;1.00;;;4.70;99.90;;;;;;4137031;28;20606;-83
2022/02/02 13:26:06;;;;;;;7.60;0.90;;;4.90;99.90;;;;;;4131036;28;20460;-84
2022/02/02 13:28:09;;;;;;;7.17;1.10;;;5.20;99.90;;;;;;4130458;28;20505;-84
2022/02/02 13:30:39;;;;;;;9.17;1.60;;;5.60;99.90;;;;;;4130301;28;20472;-84
2022/02/02 13:32:52;;;;;;;4.80;1.47;;;5.90;99.90;;;;;;4130061;28;20462;-84
2022/02/02 13:35:03;;;;;;;6.20;1.10;;;6.00;99.90;;;;;;4130786;28;20473;-84
2022/02/02 14:09:28;;;;;;;8.77;1.13;;;6.00;99.90;;;;;;4131250;28;20493;-84
2022/02/02 14:43:52;;;;;;;4.87;1.10;;;5.00;99.90;;;;;;3933998;29;20482;-86
2022/02/02 14:45:57;;;;;;;4.80;1.10;;;5.00;99.90;;;;;;4006479;29;20491;-86
2022/02/02 14:48:06;;;;;;;7.93;1.30;;;5.10;99.90;;;;;;4057824;29;21130;-85
2022/02/02 14:50:14;;;;;;;4.77;1.00;;;5.00;99.90;;;;;;4107355;28;21276;-85
2022/02/02 14:52:27;;;;;;;7.97;1.17;;;5.00;99.90;;;;;;4111446;28;20491;-85
2022/02/02 14:54:48;;;;;;;8.53;1.17;;;5.00;99.90;;;;;;4109243;28;20469;-86
2022/02/02 15:27:21;;;;;;;2.97;0.70;;;4.30;99.90;;;;;;4110455;28;20467;-85
2022/02/02 15:29:30;;;;;;;6.83;0.70;;;4.30;99.90;;;;;;4120229;28;20574;-84
2022/02/02 15:31:35;;;;;;;6.13;1.10;;;4.40;99.90;;;;;;4113145;28;20500;-84
2022/02/02 15:33:36;;;;;;;5.77;1.13;;;4.30;99.90;;;;;;4113808;28;20490;-84
2022/02/02 15:35:41;;;;;;;4.10;1.17;;;4.30;99.90;;;;;;4117506;28;20530;-84
2022/02/02 15:37:54;;;;;;;4.50;1.20;;;4.30;99.90;;;;;;4116708;28;20495;-84
2022/02/02 15:40:03;;;;;;;5.70;1.37;;;4.30;99.90;;;;;;4115652;28;20533;-84
2022/02/02 15:42:22;;;;;;;6.13;1.00;;;4.40;99.90;;;;;;4115991;28;21074;-85
2022/02/02 15:58:30;;;;;;;10.70;2.20;;;4.30;99.90;;;;;;4109811;28;20893;-83
2022/02/02 16:01:34;;;;;;;7.97;2.60;;;4.40;99.90;;;;;;4119151;28;20938;-83
2022/02/02 16:03:28;;;;;;;6.73;1.43;;;4.40;99.90;;;;;;4106623;28;20447;-82
2022/02/02 16:05:36;;;;;;;4.80;1.53;;;5.00;99.90;;;;;;4112454;28;20834;-83
2022/02/02 16:07:38;;;;;;;12.27;1.40;;;4.40;99.90;;;;;;4117271;28;20479;-83
2022/02/02 16:09:49;;;;;;;8.20;1.40;;;4.40;99.90;;;;;;4124082;28;20456;-83
2022/02/02 16:12:05;;;;;;;8.47;1.30;;;4.40;99.90;;;;;;4123924;28;20499;-82
2022/02/02 16:14:15;;;;;;;8.37;1.57;;;4.40;99.90;;;;;;4120405;28;20917;-83
2022/02/02 16:16:39;;;;;;;6.83;1.80;;;4.40;99.90;;;;;;4112659;28;20560;-83
2022/02/02 16:18:48;;;;;;;6.43;1.63;;;4.40;99.90;;;;;;4117083;28;20508;-83
2022/02/02 16:35:21;;;;;;;6.63;1.77;;;4.30;99.90;;;;;;4044642;29;20507;-84
2022/02/02 16:37:27;;;;;;;4.97;1.37;;;4.40;99.90;;;;;;4044642;29;20484;-84
2022/02/02 16:39:32;;;;;;;5.43;0.97;;;4.30;99.90;;;;;;4050897;28;20575;-84
2022/02/02 16:44:06;;;;;;;5.73;1.07;;;4.20;99.90;;;;;;4111791;28;20493;-84
2022/02/02 16:52:01;;;;;;;5.70;1.33;;;4.10;99.90;;;;;;3903433;30;20543;-83
2022/02/02 16:54:06;;;;;;;8.43;2.13;;;4.10;99.90;;;;;;3991230;29;20476;-83
2022/02/02 16:56:15;;;;;;;9.47;1.40;;;5.10;99.90;;;;;;4093195;28;20638;-82
2022/02/02 17:24:29;;;;;;;5.17;1.10;;;4.20;99.90;;;;;;4109485;28;20943;-83
2022/02/02 17:31:14;;;;;;;5.60;1.20;;;4.10;99.90;;;;;;4114523;28;20459;-81
2022/02/02 17:33:20;;;;;;;6.87;1.30;;;4.20;99.90;;;;;;4110977;28;20460;-82
2022/02/02 17:35:29;;;;;;;6.63;1.40;;;4.20;99.90;;;;;;4113695;28;20595;-81
2022/02/02 17:37:44;;;;;;;8.80;1.73;;;4.10;99.90;;;;;;4107499;28;20469;-82
2022/02/02 17:39:57;;;;;;;5.00;1.17;;;4.10;99.90;;;;;;4112146;28;20488;-82
2022/02/02 17:42:24;;;;;;;7.97;1.50;;;4.10;99.90;;;;;;4109354;28;20477;-83
2022/02/02 17:56:38;;;;;;;6.23;2.17;;;4.00;99.90;;;;;;4110822;28;20440;-84
2022/02/02 18:24:03;;;;;;;9.27;2.37;;;3.60;99.90;;;;;;4055829;29;20462;-85